sensor_id;sensor_type;location;lat;lon;timestamp;temperature;humidity
66086;DHT22;52868;49.758;9.586;2022-12-18T13:07:41;-3275.60;69.10
66086;DHT22;52868;49.758;9.586;2022-12-18T13:10:25;-3275.60;69.80
66086;DHT22;52868;49.758;9.586;2022-12-18T13:12:53;-3231.80;69.80
66086;DHT22;52868;49.758;9.586;2022-12-18T13:26:27;-3275.60;68.40
66086;DHT22;52868;49.758;9.586;2022-12-18T13:34:18;-3275.60;67.60
66086;DHT22;52868;49.758;9.586;2022-12-18T13:36:45;-3275.60;69.00
66086;DHT22;52868;49.758;9.586;2022-12-18T13:41:40;-3275.60;67.80
66086;DHT22;52868;49.758;9.586;2022-12-18T13:44:24;-3275.60;68.00
66086;DHT22;52868;49.758;9.586;2022-12-18T13:46:51;-3275.60;68.10
66086;DHT22;52868;49.758;9.586;2022-12-18T13:49:38;-3275.60;69.90
66086;DHT22;52868;49.758;9.586;2022-12-18T13:52:26;-3275.60;69.40
66086;DHT22;52868;49.758;9.586;2022-12-18T13:54:54;-3275.60;70.10
66086;DHT22;52868;49.758;9.586;2022-12-18T13:59:56;-3275.60;69.20
66086;DHT22;52868;49.758;9.586;2022-12-18T14:02:22;-3275.60;69.00
66086;DHT22;52868;49.758;9.586;2022-12-18T14:04:49;-3275.60;68.90
66086;DHT22;52868;49.758;9.586;2022-12-18T14:09:46;-3275.60;68.20
66086;DHT22;52868;49.758;9.586;2022-12-18T14:12:28;-3275.60;69.30
66086;DHT22;52868;49.758;9.586;2022-12-18T14:34:16;-3275.60;70.10
66086;DHT22;52868;49.758;9.586;2022-12-18T14:36:52;-3275.60;70.50
66086;DHT22;52868;49.758;9.586;2022-12-18T14:39:18;-3275.60;69.80
66086;DHT22;52868;49.758;9.586;2022-12-18T14:41:44;-3275.60;69.20
66086;DHT22;52868;49.758;9.586;2022-12-18T14:44:12;-3275.60;69.60
66086;DHT22;52868;49.758;9.586;2022-12-18T14:46:39;-3275.60;70.40
66086;DHT22;52868;49.758;9.586;2022-12-18T14:49:45;-3275.60;70.50
66086;DHT22;52868;49.758;9.586;2022-12-18T14:52:26;-3275.60;70.10
66086;DHT22;52868;49.758;9.586;2022-12-18T14:54:52;-3275.60;70.50
66086;DHT22;52868;49.758;9.586;2022-12-18T14:57:29;-3275.60;70.30
66086;DHT22;52868;49.758;9.586;2022-12-18T15:00:18;-3275.60;70.20
66086;DHT22;52868;49.758;9.586;2022-12-18T15:02:55;-3275.60;70.00
66086;DHT22;52868;49.758;9.586;2022-12-18T15:07:52;-3275.60;70.50
66086;DHT22;52868;49.758;9.586;2022-12-18T15:10:19;-3275.60;70.20
66086;DHT22;52868;49.758;9.586;2022-12-18T15:12:49;-3275.60;70.50
66086;DHT22;52868;49.758;9.586;2022-12-18T15:18:20;-3275.60;70.70
66086;DHT22;52868;49.758;9.586;2022-12-18T15:21:08;-3275.60;70.80
66086;DHT22;52868;49.758;9.586;2022-12-18T15:26:10;-3275.60;71.10
66086;DHT22;52868;49.758;9.586;2022-12-18T15:28:43;-3275.60;69.90
66086;DHT22;52868;49.758;9.586;2022-12-18T15:33:38;-3275.60;69.50
66086;DHT22;52868;49.758;9.586;2022-12-18T15:36:09;-3275.60;70.80
66086;DHT22;52868;49.758;9.586;2022-12-18T15:38:35;-3275.60;70.10
66086;DHT22;52868;49.758;9.586;2022-12-18T15:41:01;-3275.60;70.70
66086;DHT22;52868;49.758;9.586;2022-12-18T15:43:27;-3275.60;70.20
66086;DHT22;52868;49.758;9.586;2022-12-18T15:46:04;-3275.60;70.40
66086;DHT22;52868;49.758;9.586;2022-12-18T15:48:35;-3275.60;70.90
66086;DHT22;52868;49.758;9.586;2022-12-18T15:51:02;-3275.60;70.20
66086;DHT22;52868;49.758;9.586;2022-12-18T15:53:31;-3275.60;69.80
66086;DHT22;52868;49.758;9.586;2022-12-18T15:55:58;-3275.60;70.10
66086;DHT22;52868;49.758;9.586;2022-12-18T15:58:42;-3275.60;70.90
66086;DHT22;52868;49.758;9.586;2022-12-18T16:01:09;-3275.60;70.20
66086;DHT22;52868;49.758;9.586;2022-12-18T16:03:35;-3275.60;70.70
66086;DHT22;52868;49.758;9.586;2022-12-18T16:06:01;-3275.60;70.40
66086;DHT22;52868;49.758;9.586;2022-12-18T16:08:28;-3275.60;70.60
66086;DHT22;52868;49.758;9.586;2022-12-18T16:10:55;-3275.60;70.70
66086;DHT22;52868;49.758;9.586;2022-12-18T16:13:21;-3275.60;71.10
66086;DHT22;52868;49.758;9.586;2022-12-18T16:15:47;-3275.60;71.00
66086;DHT22;52868;49.758;9.586;2022-12-18T16:18:13;-3275.60;70.30
66086;DHT22;52868;49.758;9.586;2022-12-18T16:20:38;-3275.60;70.70
66086;DHT22;52868;49.758;9.586;2022-12-18T16:23:04;-3275.60;71.00
66086;DHT22;52868;49.758;9.586;2022-12-18T16:25:30;-3275.60;70.50
66086;DHT22;52868;49.758;9.586;2022-12-18T16:27:56;-3275.60;71.20
66086;DHT22;52868;49.758;9.586;2022-12-18T16:30:30;-3275.60;70.80
66086;DHT22;52868;49.758;9.586;2022-12-18T16:32:59;-3275.60;70.80
66086;DHT22;52868;49.758;9.586;2022-12-18T16:35:26;-3275.60;70.50
66086;DHT22;52868;49.758;9.586;2022-12-18T16:37:52;-3275.60;71.50
66086;DHT22;52868;49.758;9.586;2022-12-18T16:40:18;-3275.60;71.50
66086;DHT22;52868;49.758;9.586;2022-12-18T16:42:45;-3275.60;71.50
66086;DHT22;52868;49.758;9.586;2022-12-18T16:45:13;-3275.60;71.80
66086;DHT22;52868;49.758;9.586;2022-12-18T16:47:40;-3275.60;70.60
66086;DHT22;52868;49.758;9.586;2022-12-18T16:50:06;-3275.60;70.90
66086;DHT22;52868;49.758;9.586;2022-12-18T16:52:32;-3275.60;71.00
66086;DHT22;52868;49.758;9.586;2022-12-18T16:54:58;-3275.60;71.20
66086;DHT22;52868;49.758;9.586;2022-12-18T16:57:24;-3275.60;70.70
66086;DHT22;52868;49.758;9.586;2022-12-18T16:59:49;-3275.60;70.60
66086;DHT22;52868;49.758;9.586;2022-12-18T17:02:16;-3275.60;71.10
66086;DHT22;52868;49.758;9.586;2022-12-18T17:04:42;-3275.60;71.30
66086;DHT22;52868;49.758;9.586;2022-12-18T17:07:08;-3275.60;70.70
66086;DHT22;52868;49.758;9.586;2022-12-18T17:09:34;-3275.60;70.70
66086;DHT22;52868;49.758;9.586;2022-12-18T17:11:59;-3275.60;70.70
66086;DHT22;52868;49.758;9.586;2022-12-18T17:14:25;-3275.60;70.70
66086;DHT22;52868;49.758;9.586;2022-12-18T17:16:52;-3275.60;70.30
66086;DHT22;52868;49.758;9.586;2022-12-18T17:19:18;-3275.60;70.30
66086;DHT22;52868;49.758;9.586;2022-12-18T17:21:46;-3275.60;70.20
66086;DHT22;52868;49.758;9.586;2022-12-18T17:24:12;-3275.60;70.30
66086;DHT22;52868;49.758;9.586;2022-12-18T17:26:38;-3275.60;70.50
66086;DHT22;52868;49.758;9.586;2022-12-18T17:29:03;-3275.60;70.20
66086;DHT22;52868;49.758;9.586;2022-12-18T17:31:29;-3275.60;70.70
66086;DHT22;52868;49.758;9.586;2022-12-18T17:33:56;-3275.60;70.20
66086;DHT22;52868;49.758;9.586;2022-12-18T17:36:22;-3275.60;69.90
66086;DHT22;52868;49.758;9.586;2022-12-18T17:38:54;-3275.60;69.90
66086;DHT22;52868;49.758;9.586;2022-12-18T17:41:20;-3275.60;69.70
66086;DHT22;52868;49.758;9.586;2022-12-18T17:43:53;-3275.60;69.50
66086;DHT22;52868;49.758;9.586;2022-12-18T17:46:20;-3275.60;69.60
66086;DHT22;52868;49.758;9.586;2022-12-18T17:48:46;-3275.60;70.10
66086;DHT22;52868;49.758;9.586;2022-12-18T17:51:12;-3275.60;70.40
66086;DHT22;52868;49.758;9.586;2022-12-18T17:53:38;-3275.60;70.40
66086;DHT22;52868;49.758;9.586;2022-12-18T17:56:04;-3275.60;69.80
66086;DHT22;52868;49.758;9.586;2022-12-18T17:58:35;-3275.60;70.50
66086;DHT22;52868;49.758;9.586;2022-12-18T18:01:01;-3275.60;70.30
66086;DHT22;52868;49.758;9.586;2022-12-18T18:03:27;-3275.60;69.80
66086;DHT22;52868;49.758;9.586;2022-12-18T18:05:56;-3275.60;70.30
66086;DHT22;52868;49.758;9.586;2022-12-18T18:08:23;-3275.60;69.70
66086;DHT22;52868;49.758;9.586;2022-12-18T18:10:49;-3275.60;69.50
66086;DHT22;52868;49.758;9.586;2022-12-18T18:13:24;-3275.60;70.70
66086;DHT22;52868;49.758;9.586;2022-12-18T18:16:10;-3275.60;71.00
66086;DHT22;52868;49.758;9.586;2022-12-18T18:18:37;-3275.60;71.10
66086;DHT22;52868;49.758;9.586;2022-12-18T18:21:07;-3275.60;71.30
66086;DHT22;52868;49.758;9.586;2022-12-18T18:23:33;-3275.60;70.50
66086;DHT22;52868;49.758;9.586;2022-12-18T18:26:04;-3275.60;71.10
66086;DHT22;52868;49.758;9.586;2022-12-18T18:28:30;-3275.60;71.20
66086;DHT22;52868;49.758;9.586;2022-12-18T18:30:57;-3275.60;71.20
66086;DHT22;52868;49.758;9.586;2022-12-18T18:33:22;-3275.60;70.50
66086;DHT22;52868;49.758;9.586;2022-12-18T18:35:48;-3275.60;70.30
66086;DHT22;52868;49.758;9.586;2022-12-18T18:38:16;-3275.60;70.30
66086;DHT22;52868;49.758;9.586;2022-12-18T18:40:42;-3275.60;70.30
66086;DHT22;52868;49.758;9.586;2022-12-18T18:43:08;-3275.60;70.30
66086;DHT22;52868;49.758;9.586;2022-12-18T18:45:34;-3275.60;70.50
66086;DHT22;52868;49.758;9.586;2022-12-18T18:47:59;-3275.60;70.40
66086;DHT22;52868;49.758;9.586;2022-12-18T18:50:25;-3275.60;70.30
66086;DHT22;52868;49.758;9.586;2022-12-18T18:52:56;-3275.60;70.30
66086;DHT22;52868;49.758;9.586;2022-12-18T18:55:22;-3275.60;70.50
66086;DHT22;52868;49.758;9.586;2022-12-18T18:57:50;-3275.60;70.30
66086;DHT22;52868;49.758;9.586;2022-12-18T19:00:16;-3275.60;70.40
66086;DHT22;52868;49.758;9.586;2022-12-18T19:02:42;-3275.60;70.20
66086;DHT22;52868;49.758;9.586;2022-12-18T19:05:10;-3275.60;70.30
66086;DHT22;52868;49.758;9.586;2022-12-18T19:07:36;-3275.60;70.20
66086;DHT22;52868;49.758;9.586;2022-12-18T19:10:02;-3275.60;70.00
66086;DHT22;52868;49.758;9.586;2022-12-18T19:12:27;-3275.60;70.30
66086;DHT22;52868;49.758;9.586;2022-12-18T19:15:12;-3275.60;70.40
66086;DHT22;52868;49.758;9.586;2022-12-18T19:17:38;-3275.60;70.10
66086;DHT22;52868;49.758;9.586;2022-12-18T19:20:04;-3275.60;70.20
66086;DHT22;52868;49.758;9.586;2022-12-18T19:22:29;-3275.60;70.70
66086;DHT22;52868;49.758;9.586;2022-12-18T19:24:55;-3275.60;70.90
66086;DHT22;52868;49.758;9.586;2022-12-18T19:27:21;-3275.60;70.80
66086;DHT22;52868;49.758;9.586;2022-12-18T19:29:48;-3275.60;71.10
66086;DHT22;52868;49.758;9.586;2022-12-18T19:32:15;-3275.60;70.20
66086;DHT22;52868;49.758;9.586;2022-12-18T19:34:40;-3275.60;69.90
66086;DHT22;52868;49.758;9.586;2022-12-18T19:37:06;-3275.60;69.60
66086;DHT22;52868;49.758;9.586;2022-12-18T19:39:32;-3275.60;69.90
66086;DHT22;52868;49.758;9.586;2022-12-18T19:41:57;-3275.60;70.50
66086;DHT22;52868;49.758;9.586;2022-12-18T19:44:26;-3275.60;71.10
66086;DHT22;52868;49.758;9.586;2022-12-18T19:46:51;-3275.60;70.70
66086;DHT22;52868;49.758;9.586;2022-12-18T19:49:17;-3275.60;70.40
66086;DHT22;52868;49.758;9.586;2022-12-18T19:51:45;-3275.60;70.90
66086;DHT22;52868;49.758;9.586;2022-12-18T19:54:11;-3275.60;71.30
66086;DHT22;52868;49.758;9.586;2022-12-18T19:56:37;-3275.60;71.00
66086;DHT22;52868;49.758;9.586;2022-12-18T19:59:03;-3275.60;70.80
66086;DHT22;52868;49.758;9.586;2022-12-18T20:01:30;-3275.60;70.80
66086;DHT22;52868;49.758;9.586;2022-12-18T20:03:56;-3275.60;71.00
66086;DHT22;52868;49.758;9.586;2022-12-18T20:06:44;-3275.60;71.10
66086;DHT22;52868;49.758;9.586;2022-12-18T20:09:10;-3275.60;70.90
66086;DHT22;52868;49.758;9.586;2022-12-18T20:11:36;-3275.60;70.50
66086;DHT22;52868;49.758;9.586;2022-12-18T20:14:02;-3275.60;70.40
66086;DHT22;52868;49.758;9.586;2022-12-18T20:16:28;-3275.60;70.80
66086;DHT22;52868;49.758;9.586;2022-12-18T20:18:54;-3275.60;70.80
66086;DHT22;52868;49.758;9.586;2022-12-18T20:21:20;-3275.60;70.80
66086;DHT22;52868;49.758;9.586;2022-12-18T20:23:46;-3275.60;70.90
66086;DHT22;52868;49.758;9.586;2022-12-18T20:26:12;-3275.60;70.90
66086;DHT22;52868;49.758;9.586;2022-12-18T20:28:37;-3275.60;71.00
66086;DHT22;52868;49.758;9.586;2022-12-18T20:31:07;-3275.60;71.00
66086;DHT22;52868;49.758;9.586;2022-12-18T20:33:34;-3275.60;70.60
66086;DHT22;52868;49.758;9.586;2022-12-18T20:36:05;-3275.60;70.50
66086;DHT22;52868;49.758;9.586;2022-12-18T20:38:33;-3275.60;70.60
66086;DHT22;52868;49.758;9.586;2022-12-18T20:40:59;-3275.60;70.90
66086;DHT22;52868;49.758;9.586;2022-12-18T20:43:27;-3275.60;70.90
66086;DHT22;52868;49.758;9.586;2022-12-18T20:46:04;-3275.60;70.80
66086;DHT22;52868;49.758;9.586;2022-12-18T20:48:31;-3275.60;70.50
66086;DHT22;52868;49.758;9.586;2022-12-18T20:51:06;-3275.60;70.60
66086;DHT22;52868;49.758;9.586;2022-12-18T20:53:33;-3275.60;70.50
66086;DHT22;52868;49.758;9.586;2022-12-18T20:55:59;-3275.60;70.50
66086;DHT22;52868;49.758;9.586;2022-12-18T20:58:24;-3275.60;70.40
66086;DHT22;52868;49.758;9.586;2022-12-18T21:01:23;-3275.60;70.30
66086;DHT22;52868;49.758;9.586;2022-12-18T21:03:49;-3275.60;70.00
66086;DHT22;52868;49.758;9.586;2022-12-18T21:06:17;-3275.60;70.10
66086;DHT22;52868;49.758;9.586;2022-12-18T21:08:43;-3275.60;70.70
66086;DHT22;52868;49.758;9.586;2022-12-18T21:16:41;-3275.60;70.60
66086;DHT22;52868;49.758;9.586;2022-12-18T21:19:16;-3275.60;70.40
66086;DHT22;52868;49.758;9.586;2022-12-18T21:21:42;-3275.60;70.20
66086;DHT22;52868;49.758;9.586;2022-12-18T21:24:09;-3275.60;70.30
66086;DHT22;52868;49.758;9.586;2022-12-18T21:26:36;-3275.60;70.00
66086;DHT22;52868;49.758;9.586;2022-12-18T21:29:05;-3275.60;70.40
66086;DHT22;52868;49.758;9.586;2022-12-18T21:31:32;-3275.60;70.70
66086;DHT22;52868;49.758;9.586;2022-12-18T21:33:58;-3275.60;70.80
66086;DHT22;52868;49.758;9.586;2022-12-18T21:36:24;-3275.60;70.80
66086;DHT22;52868;49.758;9.586;2022-12-18T21:38:53;-3275.60;70.40
66086;DHT22;52868;49.758;9.586;2022-12-18T21:41:19;-3275.60;70.00
66086;DHT22;52868;49.758;9.586;2022-12-18T21:44:04;-3275.60;70.20
66086;DHT22;52868;49.758;9.586;2022-12-18T21:46:40;-3275.60;69.80
66086;DHT22;52868;49.758;9.586;2022-12-18T21:49:11;-3275.60;69.90
66086;DHT22;52868;49.758;9.586;2022-12-18T21:51:39;-3275.60;69.60
66086;DHT22;52868;49.758;9.586;2022-12-18T21:54:05;-3275.60;69.70
66086;DHT22;52868;49.758;9.586;2022-12-18T21:57:02;-3275.60;69.90
66086;DHT22;52868;49.758;9.586;2022-12-18T21:59:34;-3275.60;70.40
66086;DHT22;52868;49.758;9.586;2022-12-18T22:02:05;-3275.60;70.20
66086;DHT22;52868;49.758;9.586;2022-12-18T22:04:32;-3275.60;70.20
66086;DHT22;52868;49.758;9.586;2022-12-18T22:06:57;-3275.60;69.80
66086;DHT22;52868;49.758;9.586;2022-12-18T22:09:33;-3275.60;69.70
66086;DHT22;52868;49.758;9.586;2022-12-18T22:11:58;-3275.60;69.60
66086;DHT22;52868;49.758;9.586;2022-12-18T22:14:24;-3275.60;69.80
66086;DHT22;52868;49.758;9.586;2022-12-18T22:16:51;-3275.70;69.50
66086;DHT22;52868;49.758;9.586;2022-12-18T22:19:17;-3275.60;69.30
66086;DHT22;52868;49.758;9.586;2022-12-18T22:21:48;-3275.70;69.30
66086;DHT22;52868;49.758;9.586;2022-12-18T22:24:22;-3275.70;69.50
66086;DHT22;52868;49.758;9.586;2022-12-18T22:26:52;-3275.70;70.60
66086;DHT22;52868;49.758;9.586;2022-12-18T22:29:23;-3275.60;69.90
66086;DHT22;52868;49.758;9.586;2022-12-18T22:32:12;-3275.60;69.50
66086;DHT22;52868;49.758;9.586;2022-12-18T22:34:41;-3275.60;69.50
66086;DHT22;52868;49.758;9.586;2022-12-18T22:37:09;-3275.70;69.30
66086;DHT22;52868;49.758;9.586;2022-12-18T22:39:35;-3275.70;69.30
66086;DHT22;52868;49.758;9.586;2022-12-18T22:42:01;-3275.70;69.10
66086;DHT22;52868;49.758;9.586;2022-12-18T22:44:29;-3275.70;69.20
66086;DHT22;52868;49.758;9.586;2022-12-18T22:46:55;-3275.70;69.60
66086;DHT22;52868;49.758;9.586;2022-12-18T22:49:23;-3275.70;69.50
66086;DHT22;52868;49.758;9.586;2022-12-18T22:51:50;-3275.70;69.20
66086;DHT22;52868;49.758;9.586;2022-12-18T22:54:16;-3275.70;69.50
66086;DHT22;52868;49.758;9.586;2022-12-18T22:56:41;-3275.80;69.50
66086;DHT22;52868;49.758;9.586;2022-12-18T22:59:07;-3275.70;70.10
66086;DHT22;52868;49.758;9.586;2022-12-18T23:01:38;-3275.70;69.50
66086;DHT22;52868;49.758;9.586;2022-12-18T23:04:04;-3275.70;70.00
66086;DHT22;52868;49.758;9.586;2022-12-18T23:06:29;-3275.80;69.70
66086;DHT22;52868;49.758;9.586;2022-12-18T23:08:55;-3275.70;69.40
66086;DHT22;52868;49.758;9.586;2022-12-18T23:11:24;-3275.80;69.30
66086;DHT22;52868;49.758;9.586;2022-12-18T23:13:50;-3275.70;69.70
66086;DHT22;52868;49.758;9.586;2022-12-18T23:16:18;-3275.70;70.00
66086;DHT22;52868;49.758;9.586;2022-12-18T23:18:44;-3275.70;70.30
66086;DHT22;52868;49.758;9.586;2022-12-18T23:21:12;-3275.70;69.50
66086;DHT22;52868;49.758;9.586;2022-12-18T23:23:39;-3275.70;69.50
66086;DHT22;52868;49.758;9.586;2022-12-18T23:26:09;-3275.70;69.50
66086;DHT22;52868;49.758;9.586;2022-12-18T23:28:35;-3275.70;69.40
66086;DHT22;52868;49.758;9.586;2022-12-18T23:31:26;-3275.70;70.00
66086;DHT22;52868;49.758;9.586;2022-12-18T23:33:54;-3275.80;70.60
66086;DHT22;52868;49.758;9.586;2022-12-18T23:36:20;-3275.80;69.90
66086;DHT22;52868;49.758;9.586;2022-12-18T23:38:50;-3275.80;69.50
66086;DHT22;52868;49.758;9.586;2022-12-18T23:41:17;-3275.80;69.30
66086;DHT22;52868;49.758;9.586;2022-12-18T23:43:43;-3275.70;69.20
66086;DHT22;52868;49.758;9.586;2022-12-18T23:46:17;-3275.80;69.30
66086;DHT22;52868;49.758;9.586;2022-12-18T23:48:45;-3275.80;69.50
66086;DHT22;52868;49.758;9.586;2022-12-18T23:51:13;-3275.80;69.20
66086;DHT22;52868;49.758;9.586;2022-12-18T23:53:39;-3275.80;69.10
66086;DHT22;52868;49.758;9.586;2022-12-18T23:56:06;-3275.80;69.10
66086;DHT22;52868;49.758;9.586;2022-12-18T23:58:33;-3275.80;69.00
